Big Bear Station Historical Data
Daily Summary for August 5, 2017 Units:  English    Metric   Both
« Previous Day
Next Day »
Daily Weekly Monthly Yearly Custom
  High: Low: Average:
Temperature: 78.1 °F 51.1 °F 63.5 °F
Dew Point: 59.0 °F 40.5 °F 50.8 °F
Humidity: 85 % 40 % 65 %
Wind Speed: 5.8 mph 0.0 mph 1.9 mph
Wind Gust: -999.0 mph - -
Wind:- - WSW
Pressure: 30.29 in 30.22 in -
Precipitation: 0.00 in    
Historical Graphs
 
 
Tabular Data for August 5, 2017
Time Temperature Dew Point Pressure Wind Wind Speed Wind Gust Humidity Rainfall Rate (Hourly)
00:00 58.3 °F 41.2 °F 30.29 in SSE 2.2 mph -999.0 mph 53 % 0 in
00:15 57.6 °F 41.5 °F 30.29 in Calm   -999.0 mph 55 % 0 in
00:30 57.0 °F 40.5 °F 30.28 in South 2.2 mph -999.0 mph 54 % 0 in
00:45 56.5 °F 44.5 °F 30.28 in South 1.1 mph -999.0 mph 64 % 0 in
01:00 55.9 °F 43.9 °F 30.28 in Calm   -999.0 mph 64 % 0 in
01:16 55.4 °F 43.0 °F 30.28 in Calm   -999.0 mph 63 % 0 in
01:31 55.2 °F 44.0 °F 30.28 in Calm   -999.0 mph 66 % 0 in
01:46 54.7 °F 43.6 °F 30.27 in Calm   -999.0 mph 66 % 0 in
02:01 54.1 °F 44.2 °F 30.27 in Calm   -999.0 mph 69 % 0 in
02:16 54.0 °F 45.5 °F 30.27 in South 1.7 mph -999.0 mph 73 % 0 in
02:32 54.0 °F 45.9 °F 30.26 in South 1.7 mph -999.0 mph 74 % 0 in
02:47 53.8 °F 45.0 °F 30.27 in South 1.7 mph -999.0 mph 72 % 0 in
03:02 53.4 °F 43.9 °F 30.26 in South 1.7 mph -999.0 mph 70 % 0 in
03:18 53.4 °F 46.0 °F 30.26 in SE 1.7 mph -999.0 mph 76 % 0 in
03:33 52.9 °F 45.5 °F 30.26 in Calm   -999.0 mph 76 % 0 in
03:48 52.7 °F 46.0 °F 30.26 in Calm   -999.0 mph 78 % 0 in
04:03 52.3 °F 45.6 °F 30.26 in Calm   -999.0 mph 78 % 0 in
04:18 52.3 °F 46.3 °F 30.26 in Calm   -999.0 mph 80 % 0 in
04:34 52.2 °F 45.9 °F 30.25 in Calm   -999.0 mph 79 % 0 in
04:49 52.2 °F 45.9 °F 30.25 in South 2.2 mph -999.0 mph 79 % 0 in
05:05 52.0 °F 46.7 °F 30.25 in SSE 1.1 mph -999.0 mph 82 % 0 in
05:20 51.8 °F 46.5 °F 30.25 in Calm   -999.0 mph 82 % 0 in
05:35 51.6 °F 46.0 °F 30.25 in Calm   -999.0 mph 81 % 0 in
05:50 51.3 °F 45.7 °F 30.25 in South 2.2 mph -999.0 mph 81 % 0 in
06:05 51.1 °F 46.1 °F 30.25 in Calm   -999.0 mph 83 % 0 in
06:21 51.1 °F 45.8 °F 30.26 in South 1.7 mph -999.0 mph 82 % 0 in
06:36 51.4 °F 46.1 °F 30.25 in South 1.7 mph -999.0 mph 82 % 0 in
06:51 51.4 °F 46.4 °F 30.25 in South 1.1 mph -999.0 mph 83 % 0 in
07:06 52.5 °F 47.5 °F 30.26 in South 2.2 mph -999.0 mph 83 % 0 in
07:22 52.5 °F 47.5 °F 30.26 in Calm   -999.0 mph 83 % 0 in
07:37 53.4 °F 49.0 °F 30.27 in Calm   -999.0 mph 85 % 0 in
07:53 56.8 °F 51.4 °F 30.27 in Calm   -999.0 mph 82 % 0 in
08:08 56.1 °F 51.0 °F 30.26 in Calm   -999.0 mph 83 % 0 in
08:23 58.8 °F 51.3 °F 30.26 in Calm   -999.0 mph 76 % 0 in
08:38 59.7 °F 49.5 °F 30.27 in Calm   -999.0 mph 69 % 0 in
08:53 62.1 °F 48.5 °F 30.27 in Calm   -999.0 mph 61 % 0 in
09:09 64.6 °F 49.0 °F 30.26 in Calm   -999.0 mph 57 % 0 in
09:24 66.9 °F 49.7 °F 30.26 in NW 3.2 mph -999.0 mph 54 % 0 in
09:39 68.9 °F 49.5 °F 30.26 in NNW 4.2 mph -999.0 mph 50 % 0 in
09:55 70.5 °F 50.4 °F 30.27 in West 3.7 mph -999.0 mph 49 % 0 in
10:10 71.4 °F 49.5 °F 30.27 in NNW 3.7 mph -999.0 mph 46 % 0 in
10:25 72.1 °F 51.3 °F 30.27 in North 2.7 mph -999.0 mph 48 % 0 in
10:40 72.7 °F 51.3 °F 30.27 in NW 3.7 mph -999.0 mph 47 % 0 in
10:55 73.9 °F 50.6 °F 30.27 in South 1.1 mph -999.0 mph 44 % 0 in
11:11 75.6 °F 50.9 °F 30.27 in NNW 3.7 mph -999.0 mph 42 % 0 in
11:26 75.0 °F 49.0 °F 30.26 in North 2.2 mph -999.0 mph 40 % 0 in
11:41 76.5 °F 52.3 °F 30.26 in NNW 2.2 mph -999.0 mph 43 % 0 in
11:57 77.9 °F 52.3 °F 30.26 in North 3.7 mph -999.0 mph 41 % 0 in
12:12 75.4 °F 52.0 °F 30.26 in NE 1.7 mph -999.0 mph 44 % 0 in
12:27 75.9 °F 53.0 °F 30.26 in NW 3.7 mph -999.0 mph 45 % 0 in
12:42 78.1 °F 53.8 °F 30.26 in WNW 4.7 mph -999.0 mph 43 % 0 in
12:58 74.5 °F 54.6 °F 30.26 in NW 3.2 mph -999.0 mph 50 % 0 in
13:13 74.8 °F 56.5 °F 30.26 in NNW 2.7 mph -999.0 mph 53 % 0 in
13:29 73.9 °F 57.2 °F 30.26 in NNW 3.7 mph -999.0 mph 56 % 0 in
13:44 76.3 °F 55.7 °F 30.26 in NW 2.7 mph -999.0 mph 49 % 0 in
13:59 76.5 °F 57.0 °F 30.25 in NW 4.2 mph -999.0 mph 51 % 0 in
14:15 74.8 °F 59.0 °F 30.25 in WNW 3.7 mph -999.0 mph 58 % 0 in
14:30 74.3 °F 57.1 °F 30.25 in NW 3.2 mph -999.0 mph 55 % 0 in
14:45 73.6 °F 57.4 °F 30.25 in North 4.7 mph -999.0 mph 57 % 0 in
15:00 75.4 °F 57.1 °F 30.25 in NW 5.8 mph -999.0 mph 53 % 0 in
15:16 76.3 °F 56.3 °F 30.25 in NW 3.7 mph -999.0 mph 50 % 0 in
15:31 76.5 °F 57.0 °F 30.25 in NW 4.7 mph -999.0 mph 51 % 0 in
15:46 75.0 °F 56.7 °F 30.24 in WNW 4.2 mph -999.0 mph 53 % 0 in
16:02 73.8 °F 55.6 °F 30.24 in WSW 4.7 mph -999.0 mph 53 % 0 in
16:17 75.2 °F 56.4 °F 30.24 in NNW 4.7 mph -999.0 mph 52 % 0 in
16:32 74.5 °F 56.3 °F 30.24 in NW 5.8 mph -999.0 mph 53 % 0 in
16:47 76.6 °F 57.1 °F 30.24 in NNE 3.2 mph -999.0 mph 51 % 0 in
17:03 74.1 °F 55.9 °F 30.24 in NW 3.7 mph -999.0 mph 53 % 0 in
17:18 73.6 °F 55.4 °F 30.23 in NW 5.3 mph -999.0 mph 53 % 0 in
17:33 72.0 °F 55.0 °F 30.23 in NW 2.7 mph -999.0 mph 55 % 0 in
17:48 70.7 °F 54.2 °F 30.23 in SW 2.7 mph -999.0 mph 56 % 0 in
18:03 72.7 °F 54.6 °F 30.22 in South 1.7 mph -999.0 mph 53 % 0 in
18:19 73.8 °F 55.1 °F 30.22 in North 2.7 mph -999.0 mph 52 % 0 in
18:34 74.5 °F 54.6 °F 30.23 in North 3.7 mph -999.0 mph 50 % 0 in
18:49 70.9 °F 55.4 °F 30.22 in North 3.2 mph -999.0 mph 58 % 0 in
19:04 68.2 °F 55.6 °F 30.23 in SW 1.7 mph -999.0 mph 64 % 0 in
19:19 66.6 °F 55.7 °F 30.23 in NNW 2.2 mph -999.0 mph 68 % 0 in
19:35 64.8 °F 55.2 °F 30.23 in Calm   -999.0 mph 71 % 0 in
19:50 63.5 °F 55.4 °F 30.23 in NW 1.7 mph -999.0 mph 75 % 0 in
20:05 62.8 °F 55.1 °F 30.24 in Calm   -999.0 mph 76 % 0 in
20:20 61.7 °F 54.8 °F 30.24 in North 1.7 mph -999.0 mph 78 % 0 in
20:35 60.8 °F 54.6 °F 30.24 in South 1.1 mph -999.0 mph 80 % 0 in
20:51 60.4 °F 54.2 °F 30.24 in Calm   -999.0 mph 80 % 0 in
21:06 59.9 °F 54.1 °F 30.25 in SSW 1.7 mph -999.0 mph 81 % 0 in
21:21 59.2 °F 52.3 °F 30.25 in South 1.7 mph -999.0 mph 78 % 0 in
21:36 59.0 °F 51.8 °F 30.25 in Calm   -999.0 mph 77 % 0 in
21:51 58.6 °F 51.4 °F 30.25 in South 1.1 mph -999.0 mph 77 % 0 in
22:07 58.5 °F 51.7 °F 30.25 in SSW 1.1 mph -999.0 mph 78 % 0 in
22:22 58.5 °F 52.0 °F 30.25 in SSW 1.1 mph -999.0 mph 79 % 0 in
22:37 58.1 °F 52.0 °F 30.25 in SSW 1.7 mph -999.0 mph 80 % 0 in
22:52 57.7 °F 51.9 °F 30.25 in South 1.7 mph -999.0 mph 81 % 0 in
23:08 57.4 °F 51.3 °F 30.25 in Calm   -999.0 mph 80 % 0 in
23:23 57.0 °F 50.9 °F 30.25 in SSE 2.2 mph -999.0 mph 80 % 0 in
23:38 56.5 °F 50.7 °F 30.25 in SSE 1.7 mph -999.0 mph 81 % 0 in
23:53 56.7 °F 51.3 °F 30.25 in SSE 1.7 mph -999.0 mph 82 % 0 in
Big Bear CA Weather
Compliments of Weather Underground - 1.5 mb